createdAt,value
2022-11-19T08:35:18.369Z,0.55
2022-11-19T08:36:18.602Z,0.58
2022-11-19T08:37:18.612Z,0.60
2022-11-19T08:38:18.632Z,0.68
2022-11-19T08:39:18.631Z,0.70
2022-11-19T08:40:18.625Z,0.69
2022-11-19T08:41:18.583Z,0.69
2022-11-19T08:42:18.551Z,1.11
2022-11-19T08:43:18.539Z,1.16
2022-11-19T08:44:18.736Z,1.12
2022-11-19T08:45:20.881Z,1.08
2022-11-19T08:46:18.528Z,0.94
2022-11-19T08:47:18.512Z,0.86
2022-11-19T08:48:18.499Z,0.87
2022-11-19T08:49:18.502Z,0.91
2022-11-19T08:50:18.528Z,0.84
2022-11-19T08:51:18.494Z,0.87
2022-11-19T08:52:18.453Z,0.91
2022-11-19T08:53:18.434Z,0.91
2022-11-19T08:54:18.680Z,0.94
2022-11-19T08:55:18.433Z,0.96
2022-11-19T08:56:18.423Z,0.93
2022-11-19T08:57:18.414Z,0.93
2022-11-19T08:58:18.384Z,0.98
2022-11-19T08:59:18.869Z,0.96
2022-11-19T09:00:18.412Z,0.97
2022-11-19T09:01:18.387Z,1.00
2022-11-19T09:02:19.041Z,1.08
2022-11-19T09:03:18.406Z,1.09
2022-11-19T09:04:18.859Z,1.09
2022-11-19T09:05:18.391Z,1.11
2022-11-19T09:06:18.335Z,1.09
2022-11-19T09:07:18.417Z,1.05
2022-11-19T09:08:18.288Z,1.05
2022-11-19T09:09:18.296Z,1.02
2022-11-19T09:10:18.389Z,1.06
2022-11-19T09:11:18.259Z,1.06
2022-11-19T09:12:18.286Z,1.08
2022-11-19T09:13:18.374Z,1.12
2022-11-19T09:14:18.642Z,1.14
2022-11-19T09:15:18.406Z,1.12
2022-11-19T09:16:18.238Z,1.14
2022-11-19T09:17:18.244Z,1.14
2022-11-19T09:18:18.190Z,1.08
2022-11-19T09:19:18.197Z,1.08
2022-11-19T09:20:18.330Z,1.06
2022-11-19T09:21:18.205Z,1.09
2022-11-19T09:22:18.188Z,1.09
2022-11-19T09:23:18.176Z,1.11
2022-11-19T09:24:18.514Z,1.14
2022-11-19T09:25:18.175Z,1.15
2022-11-19T09:26:18.136Z,1.14
2022-11-19T09:27:18.128Z,1.16
2022-11-19T09:28:18.098Z,1.20
2022-11-19T09:29:18.106Z,1.22
2022-11-19T09:30:18.106Z,1.23
2022-11-19T09:31:18.137Z,1.23
2022-11-19T09:32:23.929Z,1.30
2022-11-19T09:33:19.049Z,1.37
2022-11-19T09:34:18.651Z,1.37
2022-11-19T09:35:18.068Z,1.33
2022-11-19T09:36:18.020Z,1.30
2022-11-19T09:37:18.018Z,1.33
2022-11-19T09:38:18.028Z,1.32
2022-11-19T09:39:17.988Z,1.36
2022-11-19T09:40:17.989Z,1.37
2022-11-19T09:41:18.025Z,1.40
2022-11-19T09:42:18.128Z,1.50
2022-11-19T09:43:18.094Z,1.60
2022-11-19T09:44:18.333Z,1.66
2022-11-19T09:45:17.930Z,1.79
2022-11-19T09:46:18.027Z,1.80
2022-11-19T09:47:17.972Z,1.73
2022-11-19T09:48:17.958Z,1.79
2022-11-19T09:49:17.953Z,1.72
2022-11-19T09:50:17.942Z,1.77
2022-11-19T09:51:18.153Z,1.86
2022-11-19T09:52:17.891Z,1.84
2022-11-19T09:53:17.849Z,1.81
2022-11-19T09:54:18.166Z,1.84
2022-11-19T09:55:17.866Z,1.88
2022-11-19T09:56:17.832Z,1.84
2022-11-19T09:57:17.824Z,1.80
2022-11-19T09:58:17.896Z,1.77
2022-11-19T09:59:17.783Z,1.70
2022-11-19T10:00:17.782Z,1.68
2022-11-19T10:01:17.820Z,1.70
2022-11-19T10:02:18.553Z,1.69
2022-11-19T10:03:17.781Z,1.70
2022-11-19T10:04:18.325Z,1.76
2022-11-19T10:05:17.783Z,1.76
2022-11-19T10:06:17.736Z,1.73
2022-11-19T10:07:17.787Z,1.73
2022-11-19T10:08:17.687Z,1.72
2022-11-19T10:09:17.694Z,1.73
2022-11-19T10:10:17.686Z,1.73
2022-11-19T10:11:17.673Z,1.77
2022-11-19T10:12:17.648Z,1.73
2022-11-19T10:13:17.718Z,1.79
2022-11-19T10:14:18.641Z,1.80
2022-11-19T10:15:17.620Z,1.87
2022-11-19T10:16:17.655Z,1.87
2022-11-19T10:17:17.642Z,1.90
2022-11-19T10:18:17.593Z,1.95
2022-11-19T10:19:17.645Z,1.95
2022-11-19T10:20:17.569Z,1.98
2022-11-19T10:21:17.564Z,1.90
2022-11-19T10:22:17.759Z,1.86
2022-11-19T10:23:17.565Z,1.87
2022-11-19T10:24:18.247Z,1.88
2022-11-19T10:25:17.524Z,1.86
2022-11-19T10:26:17.556Z,1.93
2022-11-19T10:27:17.546Z,1.95
2022-11-19T10:28:17.533Z,1.90
2022-11-19T10:29:18.062Z,1.91
2022-11-19T10:30:17.525Z,1.90
2022-11-19T10:31:17.476Z,1.93
2022-11-19T10:32:17.495Z,1.95
2022-11-19T10:33:17.491Z,1.95
2022-11-19T10:34:17.500Z,1.93
2022-11-19T10:35:17.475Z,1.91
2022-11-19T10:36:17.482Z,1.95
2022-11-19T10:37:17.443Z,1.99
2022-11-19T10:38:17.385Z,2.03
2022-11-19T10:39:17.821Z,2.06
2022-11-19T10:40:17.428Z,2.12
2022-11-19T10:41:17.772Z,2.17
2022-11-19T10:42:17.717Z,2.23
2022-11-19T10:43:22.056Z,2.34
2022-11-19T10:44:18.697Z,2.39
2022-11-19T10:45:17.356Z,2.36
2022-11-19T10:46:17.326Z,2.41
2022-11-19T10:47:17.349Z,2.43
2022-11-19T10:48:17.297Z,2.41
2022-11-19T10:49:17.649Z,2.38
2022-11-19T10:50:17.379Z,2.41
2022-11-19T10:51:17.268Z,2.45
2022-11-19T10:52:17.236Z,2.39
2022-11-19T10:53:17.290Z,2.35
2022-11-19T10:54:17.259Z,2.41
2022-11-19T10:55:17.254Z,2.48
2022-11-19T10:56:17.263Z,2.56
2022-11-19T10:57:17.192Z,2.59
2022-11-19T10:58:17.197Z,2.59
2022-11-19T10:59:17.467Z,2.56
2022-11-19T11:00:17.328Z,2.60
2022-11-19T11:01:17.269Z,2.59
2022-11-19T11:02:17.282Z,2.56
2022-11-19T11:03:17.162Z,2.54
2022-11-19T11:04:17.164Z,2.63
2022-11-19T11:05:17.123Z,2.59
2022-11-19T11:06:17.182Z,2.52
2022-11-19T11:07:17.181Z,2.52
2022-11-19T11:08:17.103Z,2.57
2022-11-19T11:09:17.329Z,2.46
2022-11-19T11:10:17.114Z,2.52
2022-11-19T11:11:17.053Z,2.52
2022-11-19T11:12:17.053Z,2.57
2022-11-19T11:13:17.041Z,2.60
2022-11-19T11:14:17.051Z,2.59
2022-11-19T11:15:17.069Z,2.61
2022-11-19T11:16:17.009Z,2.69
2022-11-19T11:17:17.026Z,2.71
2022-11-19T11:18:17.234Z,2.69
2022-11-19T11:19:18.281Z,2.67
2022-11-19T11:20:17.261Z,2.66
2022-11-19T11:21:17.425Z,2.67
2022-11-19T11:22:17.419Z,2.69
2022-11-19T11:23:16.965Z,2.60
2022-11-19T11:24:16.917Z,2.45
2022-11-19T11:25:16.966Z,2.38
2022-11-19T11:26:16.960Z,2.41
2022-11-19T11:27:16.919Z,2.34
2022-11-19T11:28:16.922Z,2.31
2022-11-19T11:29:17.105Z,2.27
2022-11-19T11:30:16.887Z,2.31
2022-11-19T11:31:17.017Z,2.38
2022-11-19T11:32:17.069Z,2.43
2022-11-19T11:33:17.171Z,2.43
2022-11-19T11:34:17.386Z,2.39
2022-11-19T11:35:17.160Z,2.38
2022-11-19T11:36:16.830Z,2.35
2022-11-19T11:37:16.799Z,2.34
2022-11-19T11:38:16.819Z,2.30
2022-11-19T11:39:17.044Z,2.35
2022-11-19T11:40:16.869Z,2.41
2022-11-19T11:42:18.172Z,2.38
2022-11-19T11:43:16.760Z,2.41
2022-11-19T11:44:16.804Z,2.43
2022-11-19T11:45:16.743Z,2.48
2022-11-19T11:46:16.701Z,2.52
2022-11-19T11:47:16.708Z,2.56
2022-11-19T11:48:16.769Z,2.63
2022-11-19T11:49:16.689Z,2.72
2022-11-19T11:50:16.677Z,2.77
2022-11-19T11:51:16.691Z,2.81
2022-11-19T11:52:16.658Z,2.85
2022-11-19T11:53:16.682Z,2.93
2022-11-19T11:54:18.139Z,2.99
2022-11-19T11:55:16.619Z,2.99
2022-11-19T11:56:16.642Z,2.99
2022-11-19T11:57:16.591Z,2.93
2022-11-19T11:58:16.627Z,2.92
2022-11-19T11:59:16.883Z,2.95
2022-11-19T12:00:16.621Z,2.96
2022-11-19T12:01:16.560Z,2.97
2022-11-19T12:02:16.581Z,3.02
2022-11-19T12:03:16.542Z,2.95
2022-11-19T12:04:16.545Z,2.89
2022-11-19T12:05:16.562Z,2.92
2022-11-19T12:06:16.521Z,3.02
2022-11-19T12:07:16.534Z,3.14
2022-11-19T12:08:16.507Z,3.21
2022-11-19T12:09:16.519Z,3.31
2022-11-19T12:10:16.482Z,3.23
2022-11-19T12:11:16.469Z,3.24
2022-11-19T12:12:16.436Z,3.24
2022-11-19T12:13:16.562Z,3.28
2022-11-19T12:14:16.455Z,3.28
2022-11-19T12:15:16.460Z,3.29
2022-11-19T12:16:16.416Z,3.26
2022-11-19T12:17:16.456Z,3.20
2022-11-19T12:18:16.376Z,3.17
2022-11-19T12:19:16.606Z,3.11
2022-11-19T12:20:16.393Z,3.02
2022-11-19T12:21:16.391Z,3.08
2022-11-19T12:22:16.447Z,3.03
2022-11-19T12:23:16.444Z,2.95
2022-11-19T12:24:16.323Z,3.02
2022-11-19T12:25:16.434Z,3.06
2022-11-19T12:26:16.435Z,3.11
2022-11-19T12:27:16.372Z,3.10
2022-11-19T12:28:16.294Z,3.11
2022-11-19T12:29:16.309Z,3.13
2022-11-19T12:30:16.319Z,3.14
2022-11-19T12:31:16.259Z,3.23
2022-11-19T12:32:16.261Z,3.31
2022-11-19T12:33:16.245Z,3.29
2022-11-19T12:34:16.235Z,3.29
2022-11-19T12:35:16.288Z,3.32
2022-11-19T12:36:16.402Z,3.28
2022-11-19T12:37:16.187Z,3.11
2022-11-19T12:38:16.178Z,3.17
2022-11-19T12:39:16.204Z,3.17
2022-11-19T12:40:16.592Z,3.13
2022-11-19T12:41:16.249Z,3.05
2022-11-19T12:42:16.162Z,2.97
2022-11-19T12:43:16.184Z,2.85
2022-11-19T12:44:16.176Z,2.77
2022-11-19T12:45:16.161Z,2.72
2022-11-19T12:46:16.128Z,2.71
2022-11-19T12:47:16.131Z,2.74
2022-11-19T12:48:16.077Z,2.72
2022-11-19T12:49:16.174Z,2.67
2022-11-19T12:50:16.063Z,2.69
2022-11-19T12:51:16.089Z,2.74
2022-11-19T12:52:16.060Z,2.74
2022-11-19T12:53:16.049Z,2.78
2022-11-19T12:54:18.435Z,2.81
2022-11-19T12:55:16.083Z,2.82
2022-11-19T12:56:16.040Z,2.89
2022-11-19T12:57:16.011Z,2.92
2022-11-19T12:58:15.987Z,2.95
2022-11-19T12:59:16.009Z,2.93
2022-11-19T13:00:15.998Z,2.90
2022-11-19T13:01:16.129Z,2.89
2022-11-19T13:02:15.970Z,2.92
2022-11-19T13:03:15.964Z,2.90
2022-11-19T13:04:15.944Z,2.82
2022-11-19T13:05:15.940Z,2.82
2022-11-19T13:06:18.099Z,2.82
2022-11-19T13:07:15.934Z,2.84
2022-11-19T13:08:15.900Z,2.79
2022-11-19T13:09:15.899Z,2.74
2022-11-19T13:10:15.892Z,2.74
2022-11-19T13:11:15.900Z,2.75
2022-11-19T13:12:15.865Z,2.74
2022-11-19T13:13:15.873Z,2.74
2022-11-19T13:14:15.863Z,2.66
2022-11-19T13:15:15.933Z,2.66
2022-11-19T13:16:15.820Z,2.64
2022-11-19T13:17:15.832Z,2.69
2022-11-19T13:18:15.805Z,2.75
2022-11-19T13:19:15.803Z,2.79
2022-11-19T13:20:15.757Z,2.79
2022-11-19T13:21:15.775Z,2.75
2022-11-19T13:22:15.748Z,2.78
2022-11-19T13:23:15.776Z,2.77
2022-11-19T13:24:15.791Z,2.79
2022-11-19T13:25:15.713Z,2.75
2022-11-19T13:26:15.712Z,2.72
2022-11-19T13:27:20.182Z,2.71
2022-11-19T13:28:16.738Z,2.72
2022-11-19T13:29:15.684Z,2.72
2022-11-19T13:30:15.700Z,2.72
2022-11-19T13:31:15.711Z,2.64
2022-11-19T13:32:15.661Z,2.61
2022-11-19T13:33:15.644Z,2.61
2022-11-19T13:34:15.656Z,2.63
2022-11-19T13:35:15.647Z,2.59
2022-11-19T13:36:15.622Z,2.52
2022-11-19T13:37:15.650Z,2.53
2022-11-19T13:38:15.610Z,2.54
2022-11-19T13:39:15.589Z,2.60
2022-11-19T13:40:15.581Z,2.66
2022-11-19T13:41:15.576Z,2.59
2022-11-19T13:42:15.555Z,2.56
2022-11-19T13:43:32.420Z,2.48
2022-11-19T13:44:16.569Z,2.45
2022-11-19T13:45:15.552Z,2.42
2022-11-19T13:46:15.557Z,2.39
2022-11-19T13:47:15.520Z,2.35
2022-11-19T13:48:15.484Z,2.35
2022-11-19T13:49:15.535Z,2.28
2022-11-19T13:50:15.491Z,2.30
2022-11-19T13:51:15.564Z,2.27
2022-11-19T13:52:15.444Z,2.23
2022-11-19T13:53:15.476Z,2.23
2022-11-19T13:54:15.464Z,2.18
2022-11-19T13:55:15.421Z,2.18
2022-11-19T13:56:15.467Z,2.21
2022-11-19T13:57:15.443Z,2.23
2022-11-19T13:58:15.413Z,2.24
2022-11-19T13:59:15.386Z,2.23
2022-11-19T14:00:15.418Z,2.21
2022-11-19T14:01:15.382Z,2.21
2022-11-19T14:02:15.389Z,2.21
2022-11-19T14:03:15.355Z,2.24
2022-11-19T14:04:15.331Z,2.21
2022-11-19T14:05:15.345Z,2.20
2022-11-19T14:06:15.322Z,2.18
2022-11-19T14:07:15.330Z,2.18
2022-11-19T14:08:15.401Z,2.23
2022-11-19T14:09:15.268Z,2.21
2022-11-19T14:10:15.299Z,2.23
2022-11-19T14:11:15.274Z,2.21
2022-11-19T14:12:15.289Z,2.20
2022-11-19T14:13:15.265Z,2.20
2022-11-19T14:14:15.226Z,2.18
2022-11-19T14:15:15.216Z,2.20
2022-11-19T14:16:15.211Z,2.23
2022-11-19T14:17:15.287Z,2.24
2022-11-19T14:18:15.189Z,2.28
2022-11-19T14:19:15.172Z,2.30
2022-11-19T14:20:15.178Z,2.31
2022-11-19T14:21:15.187Z,2.35
2022-11-19T14:22:15.160Z,2.35
2022-11-19T14:23:15.199Z,2.34
2022-11-19T14:24:15.162Z,2.31
2022-11-19T14:25:15.153Z,2.25
2022-11-19T14:26:15.098Z,2.25
2022-11-19T14:27:15.135Z,2.23
2022-11-19T14:28:15.139Z,2.21
2022-11-19T14:29:15.167Z,2.17
2022-11-19T14:30:15.109Z,2.12
2022-11-19T14:31:15.049Z,2.03
2022-11-19T14:32:15.106Z,1.95
2022-11-19T14:33:15.074Z,1.86
2022-11-19T14:34:15.040Z,1.83
2022-11-19T14:35:15.050Z,1.76
2022-11-19T14:36:15.001Z,1.72
2022-11-19T14:37:14.998Z,1.69
2022-11-19T14:38:14.988Z,1.65
2022-11-19T14:39:14.970Z,1.62
2022-11-19T14:40:15.043Z,1.59
2022-11-19T14:41:14.995Z,1.52
2022-11-19T14:42:14.974Z,1.52
2022-11-19T14:43:14.950Z,1.51
2022-11-19T14:44:14.929Z,1.51
2022-11-19T14:45:14.953Z,1.54
2022-11-19T14:46:14.939Z,1.58
2022-11-19T14:47:14.893Z,1.54
2022-11-19T14:48:15.039Z,1.52
2022-11-19T14:49:15.020Z,1.55
2022-11-19T14:50:15.095Z,1.55
2022-11-19T14:51:14.932Z,1.55
2022-11-19T14:52:14.882Z,1.55
2022-11-19T14:53:14.966Z,1.58
2022-11-19T14:54:14.918Z,1.62
2022-11-19T14:55:14.834Z,1.58
2022-11-19T14:56:14.801Z,1.58
2022-11-19T14:57:14.787Z,1.58
2022-11-19T14:58:14.800Z,1.59
2022-11-19T14:59:14.773Z,1.58
2022-11-19T15:00:14.785Z,1.62
2022-11-19T15:01:20.554Z,1.60
2022-11-19T15:02:15.823Z,1.59
2022-11-19T15:03:14.753Z,1.55
2022-11-19T15:04:14.741Z,1.54
2022-11-19T15:05:14.744Z,1.58
2022-11-19T15:06:14.739Z,1.55
2022-11-19T15:07:14.725Z,1.54
2022-11-19T15:08:14.683Z,1.51
2022-11-19T15:09:14.694Z,1.48
2022-11-19T15:10:14.731Z,1.47
2022-11-19T15:11:14.672Z,1.44
2022-11-19T15:12:14.657Z,1.48
2022-11-19T15:13:14.664Z,1.48
2022-11-19T15:14:14.643Z,1.54
2022-11-19T15:15:14.692Z,1.52
2022-11-19T15:16:14.604Z,1.51
2022-11-19T15:17:14.665Z,1.51
2022-11-19T15:18:14.596Z,1.50
2022-11-19T15:19:14.994Z,1.50
2022-11-19T15:20:14.599Z,1.42
2022-11-19T15:21:15.399Z,1.40
2022-11-19T15:22:14.578Z,1.41
2022-11-19T15:23:14.549Z,1.40
2022-11-19T15:24:14.557Z,1.41
2022-11-19T15:25:15.224Z,1.47
2022-11-19T15:26:14.542Z,1.48
2022-11-19T15:27:14.594Z,1.44
2022-11-19T15:28:14.514Z,1.44
2022-11-19T15:29:14.524Z,1.41
2022-11-19T15:30:14.480Z,1.42
2022-11-19T15:31:14.471Z,1.44
2022-11-19T15:32:14.469Z,1.44
2022-11-19T15:33:14.681Z,1.45
2022-11-19T15:34:14.490Z,1.47
2022-11-19T15:35:14.415Z,1.45
2022-11-19T15:36:14.427Z,1.44
2022-11-19T15:37:14.478Z,1.45
2022-11-19T15:38:19.946Z,1.42
2022-11-19T15:39:15.662Z,1.41
2022-11-19T15:40:14.845Z,1.45
2022-11-19T15:41:14.408Z,1.44
2022-11-19T15:42:14.493Z,1.45
2022-11-19T15:43:14.403Z,1.50
2022-11-19T15:44:14.832Z,1.51
2022-11-19T15:45:14.365Z,1.54
2022-11-19T15:46:14.385Z,1.51
2022-11-19T15:47:14.601Z,1.48
2022-11-19T15:48:14.315Z,1.50
2022-11-19T15:49:14.291Z,1.54
2022-11-19T15:50:14.346Z,1.54
2022-11-19T15:51:14.471Z,1.55
2022-11-19T15:52:17.918Z,1.54
2022-11-19T15:53:14.274Z,1.52
2022-11-19T15:54:14.302Z,1.52
2022-11-19T15:55:14.254Z,1.51
2022-11-19T15:56:14.304Z,1.51
2022-11-19T15:57:14.315Z,1.50
2022-11-19T15:58:14.214Z,1.50
2022-11-19T15:59:14.329Z,1.50
2022-11-19T16:00:14.224Z,1.50
2022-11-19T16:01:14.377Z,1.44
2022-11-19T16:02:14.212Z,1.45
2022-11-19T16:03:14.212Z,1.44
2022-11-19T16:04:14.198Z,1.51
2022-11-19T16:05:14.193Z,1.51
2022-11-19T16:06:14.319Z,1.48
2022-11-19T16:07:15.077Z,1.44
2022-11-19T16:08:14.180Z,1.36
2022-11-19T16:09:14.124Z,1.33
2022-11-19T16:10:14.142Z,1.36
2022-11-19T16:11:19.965Z,1.33
2022-11-19T16:12:15.140Z,1.34
2022-11-19T16:13:14.158Z,1.32
2022-11-19T16:14:14.086Z,1.32
2022-11-19T16:15:14.104Z,1.33
2022-11-19T16:16:14.150Z,1.33
2022-11-19T16:17:14.078Z,1.30
2022-11-19T16:18:14.068Z,1.29
2022-11-19T16:19:14.084Z,1.26
2022-11-19T16:20:14.097Z,1.29
2022-11-19T16:21:14.036Z,1.33
2022-11-19T16:22:14.035Z,1.30
2022-11-19T16:23:13.993Z,1.33
2022-11-19T16:24:13.918Z,1.36
2022-11-19T16:25:13.946Z,1.37
2022-11-19T16:26:14.037Z,1.33
2022-11-19T16:27:13.924Z,1.32
2022-11-19T16:28:13.941Z,1.26
2022-11-19T16:29:13.960Z,1.24
2022-11-19T16:30:13.902Z,1.23
2022-11-19T16:31:13.918Z,1.22
2022-11-19T16:32:13.920Z,1.23
2022-11-19T16:33:13.896Z,1.23
2022-11-19T16:34:13.907Z,1.23
2022-11-19T16:35:13.909Z,1.24
2022-11-19T16:36:13.829Z,1.22
2022-11-19T16:37:13.822Z,1.20
2022-11-19T16:38:13.850Z,1.20
2022-11-19T16:39:13.989Z,1.22
2022-11-19T16:40:13.832Z,1.18
2022-11-19T16:41:13.786Z,1.18
2022-11-19T16:42:15.740Z,1.15
2022-11-19T16:43:13.817Z,1.12
2022-11-19T16:44:13.797Z,1.14
2022-11-19T16:45:13.797Z,1.15
2022-11-19T16:46:13.736Z,1.15
2022-11-19T16:47:13.717Z,1.15
2022-11-19T16:48:13.746Z,1.15
2022-11-19T16:49:13.889Z,1.14
2022-11-19T16:50:13.672Z,1.16
2022-11-19T16:51:13.672Z,1.18
2022-11-19T16:52:13.650Z,1.16
2022-11-19T16:53:13.682Z,1.18
2022-11-19T16:54:13.680Z,1.20
2022-11-19T16:55:13.637Z,1.22
2022-11-19T16:56:16.921Z,1.23
2022-11-19T16:57:13.608Z,1.26
2022-11-19T16:58:13.665Z,1.23
2022-11-19T16:59:13.683Z,1.23
2022-11-19T17:00:13.662Z,1.23
2022-11-19T17:01:13.640Z,1.22
2022-11-19T17:02:13.551Z,1.22
2022-11-19T17:03:13.557Z,1.20
2022-11-19T17:04:13.548Z,1.16
2022-11-19T17:05:13.624Z,1.16
2022-11-19T17:06:13.591Z,1.16
2022-11-19T17:07:13.618Z,1.18
2022-11-19T17:08:13.509Z,1.20
2022-11-19T17:09:13.629Z,1.22
2022-11-19T17:10:13.519Z,1.22
2022-11-19T17:11:13.477Z,1.22
2022-11-19T17:12:13.511Z,1.22
2022-11-19T17:13:13.625Z,1.23
2022-11-19T17:14:13.485Z,1.23
2022-11-19T17:15:13.444Z,1.27
2022-11-19T17:16:13.426Z,1.26
2022-11-19T17:17:13.429Z,1.29
2022-11-19T17:18:13.494Z,1.29
2022-11-19T17:19:13.450Z,1.26
2022-11-19T17:20:13.466Z,1.29
2022-11-19T17:21:13.434Z,1.29
2022-11-19T17:22:13.402Z,1.27
2022-11-19T17:23:13.360Z,1.29
2022-11-19T17:24:13.360Z,1.30
2022-11-19T17:25:13.399Z,1.30
2022-11-19T17:26:13.341Z,1.32
2022-11-19T17:27:13.437Z,1.33
2022-11-19T17:28:13.315Z,1.34
2022-11-19T17:29:13.370Z,1.34
2022-11-19T17:30:13.448Z,1.33
2022-11-19T17:31:13.336Z,1.32
2022-11-19T17:32:13.721Z,1.29
2022-11-19T17:33:13.264Z,1.29
2022-11-19T17:34:13.303Z,1.27
2022-11-19T17:35:13.227Z,1.27
2022-11-19T17:36:13.388Z,1.27
2022-11-19T17:37:13.311Z,1.30
2022-11-19T17:38:13.292Z,1.27
2022-11-19T17:39:13.313Z,1.29
2022-11-19T17:40:13.249Z,1.30
2022-11-19T17:41:13.287Z,1.30
2022-11-19T17:42:13.228Z,1.33
2022-11-19T17:43:13.199Z,1.33
2022-11-19T17:44:13.124Z,1.32
2022-11-19T17:45:13.206Z,1.34
2022-11-19T17:46:13.174Z,1.54
2022-11-19T17:47:21.891Z,1.55
2022-11-19T17:48:14.213Z,1.51
2022-11-19T17:49:13.165Z,1.50
2022-11-19T17:50:13.164Z,1.45
2022-11-19T17:51:13.103Z,1.44
2022-11-19T17:52:14.552Z,1.42
2022-11-19T17:53:13.085Z,1.40
2022-11-19T17:54:13.877Z,1.41
2022-11-19T17:55:13.023Z,1.37
2022-11-19T17:56:13.177Z,1.37
2022-11-19T17:57:13.073Z,1.40
2022-11-19T17:58:13.060Z,1.40
2022-11-19T17:59:13.058Z,1.37
2022-11-19T18:00:13.057Z,1.40
2022-11-19T18:01:13.253Z,1.42
2022-11-19T18:02:13.064Z,1.44
2022-11-19T18:03:13.027Z,1.42
2022-11-19T18:04:13.053Z,1.44
2022-11-19T18:05:13.017Z,1.45
2022-11-19T18:06:12.999Z,1.44
2022-11-19T18:07:13.063Z,1.45
2022-11-19T18:08:12.962Z,1.51
2022-11-19T18:09:12.947Z,1.48
2022-11-19T18:10:13.026Z,1.50
2022-11-19T18:11:13.128Z,1.47
2022-11-19T18:12:12.858Z,1.47
2022-11-19T18:13:12.954Z,1.45
2022-11-19T18:14:12.983Z,1.45
2022-11-19T18:15:12.938Z,1.44
2022-11-19T18:16:12.915Z,1.45
2022-11-19T18:17:12.908Z,1.44
2022-11-19T18:18:12.814Z,1.45
2022-11-19T18:19:12.839Z,1.45
2022-11-19T18:20:12.808Z,1.45
2022-11-19T18:21:12.952Z,1.48
2022-11-19T18:22:12.842Z,1.47
2022-11-19T18:23:12.861Z,1.48
2022-11-19T18:24:13.599Z,1.47
2022-11-19T18:25:12.757Z,1.48
2022-11-19T18:26:12.819Z,1.51
2022-11-19T18:27:12.759Z,1.52
2022-11-19T18:28:12.762Z,1.51
2022-11-19T18:29:12.769Z,1.52
2022-11-19T18:30:12.703Z,1.55
2022-11-19T18:31:12.835Z,1.55
2022-11-19T18:32:12.732Z,1.58
2022-11-19T18:33:12.723Z,1.52
2022-11-19T18:34:12.727Z,1.55
2022-11-19T18:35:12.826Z,1.55
2022-11-19T18:36:12.674Z,1.58
2022-11-19T18:37:12.731Z,1.58
2022-11-19T18:38:12.680Z,1.58
2022-11-19T18:39:13.375Z,1.54
2022-11-19T18:40:12.695Z,1.52
2022-11-19T18:41:12.854Z,1.54
2022-11-19T18:42:12.633Z,1.54
2022-11-19T18:43:13.289Z,1.58
2022-11-19T18:44:12.601Z,1.60
2022-11-19T18:45:12.760Z,1.62
2022-11-19T18:46:12.623Z,1.60
2022-11-19T18:47:12.701Z,1.62
2022-11-19T18:48:12.532Z,1.62
2022-11-19T18:49:12.549Z,1.63
2022-11-19T18:50:12.546Z,1.65
2022-11-19T18:51:13.243Z,1.66
2022-11-19T18:52:12.506Z,1.68
2022-11-19T18:53:12.852Z,1.66
2022-11-19T18:54:14.362Z,1.70
2022-11-19T18:55:12.487Z,1.68
2022-11-19T18:56:12.518Z,1.66
2022-11-19T18:57:12.739Z,1.68
2022-11-19T18:58:12.483Z,1.69
2022-11-19T18:59:12.503Z,1.68
2022-11-19T19:00:12.402Z,1.70
2022-11-19T19:01:12.543Z,1.70
2022-11-19T19:02:12.490Z,1.68
2022-11-19T19:03:12.659Z,1.70
2022-11-19T19:04:14.272Z,1.69
2022-11-19T19:05:12.570Z,1.70
2022-11-19T19:06:12.333Z,1.72
2022-11-19T19:07:12.389Z,1.72
2022-11-19T19:08:12.365Z,1.69
2022-11-19T19:09:12.373Z,1.72
2022-11-19T19:10:12.326Z,1.70
2022-11-19T19:11:12.303Z,1.72
2022-11-19T19:12:13.823Z,1.73
2022-11-19T19:13:12.277Z,1.76
2022-11-19T19:14:12.337Z,1.76
2022-11-19T19:15:12.336Z,1.72
2022-11-19T19:16:12.255Z,1.72
2022-11-19T19:17:12.288Z,1.73
2022-11-19T19:18:12.292Z,1.73
2022-11-19T19:19:12.267Z,1.76
2022-11-19T19:20:12.282Z,1.76
2022-11-19T19:21:12.245Z,1.76
2022-11-19T19:22:12.242Z,1.76
2022-11-19T19:23:12.277Z,1.76
2022-11-19T19:24:12.702Z,1.77
2022-11-19T19:25:12.178Z,1.79
2022-11-19T19:26:12.200Z,1.81
2022-11-19T19:27:12.265Z,1.81
2022-11-19T19:28:12.377Z,1.84
2022-11-19T19:29:12.168Z,1.86
2022-11-19T19:30:12.290Z,1.83
2022-11-19T19:31:16.505Z,1.83
2022-11-19T19:32:13.079Z,1.83
2022-11-19T19:33:12.140Z,1.83
2022-11-19T19:34:12.109Z,1.84
2022-11-19T19:35:12.117Z,1.81
2022-11-19T19:36:12.087Z,1.81
2022-11-19T19:37:12.171Z,1.81
2022-11-19T19:38:12.063Z,1.84
2022-11-19T19:39:12.070Z,1.83
2022-11-19T19:40:12.034Z,1.86
2022-11-19T19:41:12.061Z,1.86
2022-11-19T19:42:12.049Z,1.87
2022-11-19T19:43:12.064Z,1.90
2022-11-19T19:44:12.034Z,1.90
2022-11-19T19:45:11.951Z,1.88
2022-11-19T19:46:12.013Z,1.91
2022-11-19T19:47:12.002Z,1.90
2022-11-19T19:48:11.922Z,1.90
2022-11-19T19:49:12.641Z,1.90
2022-11-19T19:50:11.893Z,1.88
2022-11-19T19:51:11.995Z,1.88
2022-11-19T19:52:11.922Z,1.88
2022-11-19T19:53:11.953Z,1.88
2022-11-19T19:54:13.501Z,1.90
2022-11-19T19:55:11.912Z,1.90
2022-11-19T19:56:15.849Z,1.91
2022-11-19T19:57:11.869Z,1.93
2022-11-19T19:58:11.882Z,1.91
2022-11-19T19:59:11.860Z,1.93
2022-11-19T20:00:11.884Z,1.93
2022-11-19T20:01:11.832Z,1.91
2022-11-19T20:02:11.891Z,1.93
2022-11-19T20:03:11.839Z,1.93
2022-11-19T20:04:11.813Z,1.93
2022-11-19T20:05:11.832Z,1.93
2022-11-19T20:06:11.842Z,1.91
2022-11-19T20:07:11.834Z,1.90
2022-11-19T20:08:11.743Z,1.90
2022-11-19T20:09:11.795Z,1.90
2022-11-19T20:10:11.821Z,1.91
2022-11-19T20:11:11.942Z,1.90
2022-11-19T20:12:11.675Z,1.93
2022-11-19T20:13:11.723Z,1.98
2022-11-19T20:14:11.697Z,1.98
2022-11-19T20:15:11.689Z,1.93
2022-11-19T20:16:17.338Z,1.93
2022-11-19T20:17:12.685Z,1.98
2022-11-19T20:18:11.685Z,1.98
2022-11-19T20:19:11.688Z,1.93
2022-11-19T20:20:11.644Z,1.90
2022-11-19T20:21:11.632Z,1.90
2022-11-19T20:22:11.555Z,1.88
2022-11-19T20:23:11.628Z,1.91
2022-11-19T20:24:12.892Z,1.91
2022-11-19T20:25:11.544Z,1.90
2022-11-19T20:26:11.684Z,1.90
2022-11-19T20:27:11.593Z,1.87
2022-11-19T20:28:11.633Z,1.87
2022-11-19T20:29:11.931Z,1.88
2022-11-19T20:30:11.698Z,1.86
2022-11-19T20:31:11.559Z,1.86
2022-11-19T20:32:11.526Z,1.83
2022-11-19T20:33:11.564Z,1.80
2022-11-19T20:34:11.536Z,1.76
2022-11-19T20:35:11.639Z,1.70
2022-11-19T20:36:11.628Z,1.70
2022-11-19T20:37:11.593Z,1.70
2022-11-19T20:38:12.202Z,1.73
2022-11-19T20:39:11.457Z,1.70
2022-11-19T20:40:11.464Z,1.73
2022-11-19T20:41:11.445Z,1.76
2022-11-19T20:42:11.446Z,1.72
2022-11-19T20:43:11.448Z,1.70
2022-11-19T20:44:11.437Z,1.73
2022-11-19T20:45:11.467Z,1.77
2022-11-19T20:46:11.333Z,1.80
2022-11-19T20:47:11.387Z,1.80
2022-11-19T20:48:11.307Z,1.80
2022-11-19T20:49:15.600Z,1.83
2022-11-19T20:50:12.356Z,1.84
2022-11-19T20:51:11.347Z,1.84
2022-11-19T20:52:11.362Z,1.84
2022-11-19T20:53:11.331Z,1.83
2022-11-19T20:54:11.675Z,1.81
2022-11-19T20:55:11.301Z,1.84
2022-11-19T20:56:11.260Z,1.86
2022-11-19T20:57:11.300Z,1.88
2022-11-19T20:58:11.277Z,1.88
2022-11-19T20:59:11.267Z,1.88
2022-11-19T21:00:11.448Z,1.90
2022-11-19T21:01:11.373Z,1.90
2022-11-19T21:02:11.327Z,1.91
2022-11-19T21:03:11.308Z,1.90
2022-11-19T21:04:11.219Z,1.91
2022-11-19T21:05:11.296Z,1.93
2022-11-19T21:06:11.212Z,1.91
2022-11-19T21:07:11.280Z,1.91
2022-11-19T21:08:11.152Z,1.87
2022-11-19T21:09:11.201Z,1.86
2022-11-19T21:10:11.222Z,1.83
2022-11-19T21:11:11.443Z,1.79
2022-11-19T21:12:11.155Z,1.77
2022-11-19T21:13:11.143Z,1.77
2022-11-19T21:14:11.201Z,1.77
2022-11-19T21:15:11.122Z,1.77
2022-11-19T21:16:11.155Z,1.77
2022-11-19T21:17:11.140Z,1.76
2022-11-19T21:18:11.092Z,1.77
2022-11-19T21:19:11.177Z,1.76
2022-11-19T21:20:11.084Z,1.76
2022-11-19T21:21:11.017Z,1.72
2022-11-19T21:22:11.073Z,1.68
2022-11-19T21:23:11.026Z,1.68
2022-11-19T21:24:11.443Z,1.68
2022-11-19T21:25:12.609Z,1.65
2022-11-19T21:26:11.039Z,1.63
2022-11-19T21:27:10.913Z,1.59
2022-11-19T21:28:11.112Z,1.59
2022-11-19T21:29:10.975Z,1.62
2022-11-19T21:30:11.074Z,1.63
2022-11-19T21:31:10.942Z,1.65
2022-11-19T21:32:10.994Z,1.65
2022-11-19T21:33:10.955Z,1.65
2022-11-19T21:34:10.900Z,1.60
2022-11-19T21:35:11.030Z,1.59
2022-11-19T21:36:10.894Z,1.60
2022-11-19T21:37:10.912Z,1.62
2022-11-19T21:38:12.382Z,1.63
2022-11-19T21:39:10.924Z,1.63
2022-11-19T21:40:10.861Z,1.63
2022-11-19T21:41:10.875Z,1.60
2022-11-19T21:42:10.847Z,1.62
2022-11-19T21:43:10.836Z,1.65
2022-11-19T21:44:10.799Z,1.62
2022-11-19T21:45:10.933Z,1.65
2022-11-19T21:46:10.839Z,1.65
2022-11-19T21:47:10.784Z,1.66
2022-11-19T21:48:10.764Z,1.63
2022-11-19T21:49:10.777Z,1.63
2022-11-19T21:50:10.792Z,1.68
2022-11-19T21:51:10.837Z,1.69
2022-11-19T21:52:10.894Z,1.69
2022-11-19T21:53:10.832Z,1.70
2022-11-19T21:54:11.815Z,1.70